createdAt,value
2018-02-25T00:01:36.708Z,3.63
2018-02-25T00:04:03.189Z,3.30
2018-02-25T00:06:29.648Z,3.10
2018-02-25T00:08:56.150Z,3.30
2018-02-25T00:11:22.550Z,3.60
2018-02-25T00:13:49.682Z,3.70
2018-02-25T00:16:16.846Z,2.87
2018-02-25T00:18:43.291Z,3.97
2018-02-25T00:21:09.791Z,3.80
2018-02-25T00:23:36.218Z,3.90
2018-02-25T00:26:02.711Z,3.97
2018-02-25T00:28:29.115Z,3.97
2018-02-25T00:30:56.254Z,4.63
2018-02-25T00:33:23.386Z,4.40
2018-02-25T00:35:49.766Z,5.17
2018-02-25T00:38:16.250Z,4.00
2018-02-25T00:40:44.190Z,4.73
2018-02-25T00:43:10.655Z,5.37
2018-02-25T00:45:37.100Z,4.70
2018-02-25T00:48:04.227Z,4.50
2018-02-25T00:50:30.664Z,3.83
2018-02-25T00:52:57.113Z,4.57
2018-02-25T00:55:24.247Z,3.80
2018-02-25T00:57:50.670Z,3.93
2018-02-25T01:00:17.060Z,4.10
2018-02-25T01:02:43.457Z,3.70
2018-02-25T01:05:10.704Z,3.77
2018-02-25T01:07:37.138Z,4.63
2018-02-25T01:10:03.549Z,4.67
2018-02-25T01:12:29.951Z,3.50
2018-02-25T01:14:56.439Z,4.40
2018-02-25T01:17:23.649Z,4.43
2018-02-25T01:19:50.035Z,4.27
2018-02-25T01:22:17.213Z,4.07
2018-02-25T01:24:43.593Z,4.93
2018-02-25T01:27:11.464Z,3.70
2018-02-25T01:29:37.930Z,4.13
2018-02-25T01:32:04.384Z,4.83
2018-02-25T01:34:30.980Z,4.40
2018-02-25T01:36:57.439Z,4.47
2018-02-25T01:39:23.825Z,3.43
2018-02-25T01:41:50.203Z,4.27
2018-02-25T01:44:16.647Z,5.30
2018-02-25T01:46:43.779Z,4.23
2018-02-25T01:49:10.915Z,4.60
2018-02-25T01:51:38.090Z,3.17
2018-02-25T01:54:04.528Z,4.03
2018-02-25T01:56:30.922Z,4.63
2018-02-25T01:58:57.349Z,4.03
2018-02-25T02:01:23.749Z,4.10
2018-02-25T02:03:50.162Z,5.53
2018-02-25T02:06:16.749Z,4.43
2018-02-25T02:08:43.899Z,3.93
2018-02-25T02:11:10.275Z,5.77
2018-02-25T02:13:36.692Z,4.80
2018-02-25T02:16:03.273Z,5.27
2018-02-25T02:18:29.705Z,4.53
2018-02-25T02:20:56.114Z,5.07
2018-02-25T02:23:23.214Z,5.00
2018-02-25T02:25:49.729Z,4.47
2018-02-25T02:28:16.145Z,4.93
2018-02-25T02:30:42.538Z,4.97
2018-02-25T02:33:08.959Z,5.40
2018-02-25T02:35:36.848Z,5.17
2018-02-25T02:38:03.973Z,6.00
2018-02-25T02:40:30.499Z,4.07
2018-02-25T02:43:05.022Z,5.07
2018-02-25T02:45:31.533Z,4.53
2018-02-25T02:47:57.985Z,5.30
2018-02-25T02:50:25.245Z,6.10
2018-02-25T02:52:51.638Z,5.50
2018-02-25T02:55:18.110Z,4.97
2018-02-25T02:57:44.539Z,5.40
2018-02-25T03:00:10.899Z,5.77
2018-02-25T03:02:38.035Z,5.27
2018-02-25T03:05:04.559Z,4.50
2018-02-25T03:07:31.694Z,5.37
2018-02-25T03:09:58.095Z,5.37
2018-02-25T03:12:24.579Z,5.43
2018-02-25T03:14:50.968Z,5.50
2018-02-25T03:17:17.364Z,5.80
2018-02-25T03:19:44.552Z,7.30
2018-02-25T03:22:10.955Z,5.60
2018-02-25T03:24:37.334Z,4.33
2018-02-25T03:27:03.868Z,7.07
2018-02-25T03:29:30.428Z,5.97
2018-02-25T03:31:56.814Z,5.60
2018-02-25T03:34:23.258Z,5.20
2018-02-25T03:36:49.638Z,5.30
2018-02-25T03:39:16.022Z,5.60
2018-02-25T03:41:42.406Z,6.80
2018-02-25T03:44:08.899Z,6.10
2018-02-25T03:46:35.433Z,5.90
2018-02-25T03:49:02.657Z,7.13
2018-02-25T03:51:29.050Z,6.17
2018-02-25T03:53:56.184Z,6.40
2018-02-25T03:56:22.598Z,6.20
2018-02-25T03:58:49.132Z,6.73
2018-02-25T04:01:15.533Z,5.97
2018-02-25T04:03:41.949Z,6.10
2018-02-25T04:06:09.092Z,8.20
2018-02-25T04:08:36.326Z,6.40
2018-02-25T04:11:02.937Z,6.30
2018-02-25T04:13:29.339Z,7.03
2018-02-25T04:15:55.815Z,6.83
2018-02-25T04:18:22.199Z,7.50
2018-02-25T04:20:49.298Z,7.37
2018-02-25T04:23:15.660Z,6.60
2018-02-25T04:25:42.856Z,6.50
2018-02-25T04:28:09.258Z,6.90
2018-02-25T04:30:35.656Z,6.90
2018-02-25T04:33:02.192Z,6.60
2018-02-25T04:35:28.631Z,6.63
2018-02-25T04:37:55.059Z,7.70
2018-02-25T04:40:21.463Z,7.13
2018-02-25T04:42:47.908Z,7.90
2018-02-25T04:45:14.299Z,7.40
2018-02-25T04:47:40.788Z,7.40
2018-02-25T04:50:07.222Z,6.20
2018-02-25T04:52:33.759Z,7.17
2018-02-25T04:55:00.158Z,8.53
2018-02-25T04:57:26.534Z,7.10
2018-02-25T04:59:52.907Z,7.67
2018-02-25T05:02:19.348Z,7.83
2018-02-25T05:04:45.746Z,7.27
2018-02-25T05:07:12.934Z,7.07
2018-02-25T05:09:39.346Z,9.33
2018-02-25T05:12:05.788Z,7.47
2018-02-25T05:14:32.169Z,7.07
2018-02-25T05:16:58.703Z,7.37
2018-02-25T05:19:25.087Z,6.30
2018-02-25T05:21:51.496Z,6.93
2018-02-25T05:24:18.691Z,8.30
2018-02-25T05:26:45.153Z,7.03
2018-02-25T05:29:13.060Z,6.60
2018-02-25T05:31:39.542Z,8.17
2018-02-25T05:34:05.963Z,8.60
2018-02-25T05:36:32.334Z,7.37
2018-02-25T05:38:58.819Z,7.87
2018-02-25T05:41:25.363Z,7.83
2018-02-25T05:43:51.772Z,6.83
2018-02-25T05:46:18.197Z,7.37
2018-02-25T05:48:44.567Z,7.40
2018-02-25T05:51:10.955Z,7.90
2018-02-25T05:53:37.366Z,7.60
2018-02-25T05:56:04.506Z,7.80
2018-02-25T05:58:30.918Z,6.80
2018-02-25T06:00:57.360Z,7.03
2018-02-25T06:03:23.744Z,5.43
2018-02-25T06:05:51.054Z,7.70
2018-02-25T06:08:17.488Z,6.07
2018-02-25T06:10:43.881Z,7.20
2018-02-25T06:13:10.320Z,6.70
2018-02-25T06:15:36.818Z,6.00
2018-02-25T06:18:03.929Z,7.00
2018-02-25T06:20:30.352Z,7.27
2018-02-25T06:22:56.908Z,6.40
2018-02-25T06:25:24.054Z,6.70
2018-02-25T06:27:50.466Z,6.40
2018-02-25T06:30:17.020Z,5.53
2018-02-25T06:32:44.156Z,6.90
2018-02-25T06:35:10.582Z,6.63
2018-02-25T06:37:37.141Z,6.23
2018-02-25T06:40:03.606Z,7.47
2018-02-25T06:42:30.011Z,6.03
2018-02-25T06:44:56.516Z,7.57
2018-02-25T06:47:22.962Z,6.50
2018-02-25T06:49:49.368Z,6.67
2018-02-25T06:52:15.869Z,6.63
2018-02-25T06:54:42.261Z,6.90
2018-02-25T06:57:08.783Z,7.40
2018-02-25T06:59:35.273Z,7.03
2018-02-25T07:02:02.493Z,7.77
2018-02-25T07:04:28.892Z,7.00
2018-02-25T07:06:55.300Z,6.83
2018-02-25T07:09:21.681Z,7.30
2018-02-25T07:11:48.126Z,7.37
2018-02-25T07:14:14.662Z,7.00
2018-02-25T07:16:41.064Z,7.07
2018-02-25T07:19:07.628Z,7.63
2018-02-25T07:21:34.267Z,7.87
2018-02-25T07:24:01.517Z,7.83
2018-02-25T07:26:27.911Z,6.43
2018-02-25T07:28:54.382Z,7.47
2018-02-25T07:31:20.820Z,7.10
2018-02-25T07:33:47.196Z,7.97
2018-02-25T07:36:13.645Z,7.40
2018-02-25T07:38:40.115Z,7.73
2018-02-25T07:41:06.583Z,7.40
2018-02-25T07:43:33.009Z,8.47
2018-02-25T07:45:59.439Z,8.17
2018-02-25T07:48:25.854Z,7.57
2018-02-25T07:50:52.315Z,6.93
2018-02-25T07:53:19.429Z,7.33
2018-02-25T07:55:46.788Z,8.10
2018-02-25T07:58:14.113Z,7.87
2018-02-25T08:00:40.515Z,7.73
2018-02-25T08:03:06.900Z,8.03
2018-02-25T08:05:33.309Z,7.70
2018-02-25T08:07:59.738Z,7.73
2018-02-25T08:10:26.148Z,8.40
2018-02-25T08:12:52.554Z,8.30
2018-02-25T08:15:19.682Z,7.80
2018-02-25T08:17:47.560Z,7.70
2018-02-25T08:20:14.790Z,8.43
2018-02-25T08:22:41.205Z,7.37
2018-02-25T08:25:07.625Z,6.90
2018-02-25T08:27:34.924Z,8.10
2018-02-25T08:30:02.123Z,7.40
2018-02-25T08:32:28.607Z,8.27
2018-02-25T08:34:55.078Z,7.10
2018-02-25T08:37:21.511Z,6.03
2018-02-25T08:39:47.903Z,7.27
2018-02-25T08:42:14.397Z,6.17
2018-02-25T08:44:40.805Z,7.23
2018-02-25T08:47:07.219Z,6.90
2018-02-25T08:49:34.375Z,6.90
2018-02-25T08:52:01.525Z,5.90
2018-02-25T08:54:27.962Z,6.23
2018-02-25T08:56:54.420Z,6.30
2018-02-25T08:59:21.011Z,6.80
2018-02-25T09:01:47.453Z,7.77
2018-02-25T09:04:13.895Z,7.20
2018-02-25T09:06:41.183Z,6.60
2018-02-25T09:09:07.627Z,6.73
2018-02-25T09:11:34.132Z,6.13
2018-02-25T09:14:00.637Z,7.10
2018-02-25T09:16:27.949Z,6.67
2018-02-25T09:18:54.502Z,6.53
2018-02-25T09:21:21.743Z,6.53
2018-02-25T09:23:48.294Z,7.20
2018-02-25T09:26:14.739Z,6.93
2018-02-25T09:28:41.285Z,6.33
2018-02-25T09:31:07.723Z,7.40
2018-02-25T09:33:34.246Z,6.90
2018-02-25T09:36:00.663Z,6.73
2018-02-25T09:38:27.216Z,6.80
2018-02-25T09:40:53.726Z,6.50
2018-02-25T09:43:20.188Z,6.27
2018-02-25T09:45:47.397Z,5.70
2018-02-25T09:48:14.118Z,5.17
2018-02-25T09:50:40.572Z,6.17
2018-02-25T09:53:07.146Z,5.60
2018-02-25T09:55:33.633Z,5.00
2018-02-25T09:58:00.085Z,5.60
2018-02-25T10:00:26.554Z,5.00
2018-02-25T10:02:52.962Z,5.07
2018-02-25T10:05:19.386Z,5.47
2018-02-25T10:07:45.874Z,4.43
2018-02-25T10:10:13.146Z,5.37
2018-02-25T10:12:39.741Z,4.50
2018-02-25T10:15:06.198Z,5.17
2018-02-25T10:17:32.674Z,4.73
2018-02-25T10:19:59.342Z,3.90
2018-02-25T10:22:25.799Z,5.70
2018-02-25T10:24:53.105Z,4.30
2018-02-25T10:27:19.531Z,4.37
2018-02-25T10:29:45.943Z,4.70
2018-02-25T10:32:12.536Z,4.53
2018-02-25T10:34:39.733Z,3.87
2018-02-25T10:37:06.130Z,4.33
2018-02-25T10:39:32.618Z,3.87
2018-02-25T10:41:59.109Z,4.63
2018-02-25T10:44:26.243Z,5.10
2018-02-25T10:46:52.761Z,4.40
2018-02-25T10:49:20.127Z,3.80
2018-02-25T10:51:47.484Z,4.00
2018-02-25T10:54:14.746Z,3.80
2018-02-25T10:56:41.959Z,3.37
2018-02-25T10:59:08.388Z,4.43
2018-02-25T11:01:34.883Z,4.40
2018-02-25T11:04:01.426Z,4.93
2018-02-25T11:06:29.447Z,3.70
2018-02-25T11:08:55.873Z,4.00
2018-02-25T11:11:22.406Z,4.43
2018-02-25T11:13:48.961Z,3.93
2018-02-25T11:16:16.148Z,4.17
2018-02-25T11:18:42.629Z,3.73
2018-02-25T11:21:09.039Z,4.13
2018-02-25T11:23:35.697Z,3.97
2018-02-25T11:26:02.086Z,3.37
2018-02-25T11:28:28.614Z,4.10
2018-02-25T11:30:55.762Z,4.60
2018-02-25T11:33:22.269Z,4.50
2018-02-25T11:35:48.668Z,3.20
2018-02-25T11:38:15.848Z,2.77
2018-02-25T11:40:42.470Z,3.67
2018-02-25T11:43:09.028Z,3.27
2018-02-25T11:45:36.481Z,3.73
2018-02-25T11:48:02.975Z,3.87
2018-02-25T11:50:29.553Z,3.17
2018-02-25T11:52:56.032Z,3.20
2018-02-25T11:55:22.545Z,2.93
2018-02-25T11:57:49.060Z,3.63
2018-02-25T12:00:15.518Z,3.10
2018-02-25T12:02:42.234Z,3.27
2018-02-25T12:05:09.441Z,3.43
2018-02-25T12:07:35.872Z,3.10
2018-02-25T12:10:02.575Z,3.20
2018-02-25T12:12:29.263Z,2.70
2018-02-25T12:14:59.430Z,3.67
2018-02-25T12:17:22.236Z,2.93
2018-02-25T12:19:48.650Z,2.90
2018-02-25T12:22:15.198Z,3.33
2018-02-25T12:24:41.691Z,2.33
2018-02-25T12:27:08.136Z,2.93
2018-02-25T12:29:34.582Z,3.40
2018-02-25T12:32:01.024Z,2.60
2018-02-25T12:34:27.471Z,2.80
2018-02-25T12:36:53.928Z,2.50
2018-02-25T12:39:20.342Z,2.50
2018-02-25T12:41:46.902Z,2.73
2018-02-25T12:44:13.306Z,2.67
2018-02-25T12:46:39.740Z,3.53
2018-02-25T12:49:06.138Z,2.40
2018-02-25T12:51:32.600Z,2.40
2018-02-25T12:53:59.060Z,2.30
2018-02-25T12:56:25.492Z,2.80
2018-02-25T12:58:52.691Z,2.73
2018-02-25T13:01:19.188Z,2.93
2018-02-25T13:03:46.544Z,3.73
2018-02-25T13:06:13.087Z,2.83
2018-02-25T13:08:39.479Z,3.10
2018-02-25T13:11:05.912Z,2.97
2018-02-25T13:13:32.331Z,2.60
2018-02-25T13:15:58.772Z,2.80
2018-02-25T13:18:25.242Z,3.10
2018-02-25T13:20:51.777Z,2.57
2018-02-25T13:23:18.220Z,3.10
2018-02-25T13:25:44.603Z,2.50
2018-02-25T13:28:11.177Z,2.73
2018-02-25T13:30:37.611Z,3.03
2018-02-25T13:33:04.013Z,2.50
2018-02-25T13:35:30.586Z,2.20
2018-02-25T13:37:57.042Z,3.00
2018-02-25T13:40:24.264Z,2.53
2018-02-25T13:42:50.800Z,2.60
2018-02-25T13:45:17.209Z,3.17
2018-02-25T13:47:43.619Z,3.30
2018-02-25T13:50:10.308Z,2.83
2018-02-25T13:52:36.769Z,2.83
2018-02-25T13:55:04.096Z,2.50
2018-02-25T13:57:30.575Z,2.20
2018-02-25T13:59:57.024Z,3.00
2018-02-25T14:02:23.545Z,2.23
2018-02-25T14:04:49.974Z,2.97
2018-02-25T14:07:16.356Z,2.63
2018-02-25T14:09:43.678Z,2.57
2018-02-25T14:12:10.116Z,2.80
2018-02-25T14:14:36.494Z,2.20
2018-02-25T14:17:03.630Z,2.90
2018-02-25T14:19:30.164Z,3.17
2018-02-25T14:21:56.575Z,2.20
2018-02-25T14:24:22.952Z,2.40
2018-02-25T14:26:50.139Z,2.27
2018-02-25T14:29:16.538Z,3.00
2018-02-25T14:31:43.688Z,3.13
2018-02-25T14:34:10.858Z,2.87
2018-02-25T14:36:37.348Z,3.00
2018-02-25T14:39:03.763Z,2.63
2018-02-25T14:41:30.319Z,2.87
2018-02-25T14:43:56.735Z,2.57
2018-02-25T14:46:23.183Z,2.83
2018-02-25T14:48:49.671Z,2.80
2018-02-25T14:51:16.132Z,3.20
2018-02-25T14:53:42.684Z,2.93
2018-02-25T14:56:09.328Z,3.00
2018-02-25T14:58:36.511Z,2.90
2018-02-25T15:01:02.959Z,2.43
2018-02-25T15:03:29.381Z,3.13
2018-02-25T15:05:55.915Z,2.60
2018-02-25T15:08:22.310Z,3.10
2018-02-25T15:10:48.789Z,3.07
2018-02-25T15:13:15.218Z,2.40
2018-02-25T15:15:42.342Z,2.53
2018-02-25T15:18:09.544Z,2.73
2018-02-25T15:20:35.914Z,2.93
2018-02-25T15:23:02.345Z,3.27
2018-02-25T15:25:28.784Z,2.60
2018-02-25T15:27:55.310Z,2.90
2018-02-25T15:30:21.756Z,3.23
2018-02-25T15:32:49.643Z,3.30
2018-02-25T15:35:16.967Z,2.93
2018-02-25T15:37:44.169Z,2.50
2018-02-25T15:40:10.613Z,2.90
2018-02-25T15:42:37.002Z,2.83
2018-02-25T15:45:03.490Z,3.70
2018-02-25T15:47:29.932Z,2.90
2018-02-25T15:49:56.390Z,2.60
2018-02-25T15:52:22.770Z,2.87
2018-02-25T15:54:49.236Z,2.83
2018-02-25T15:57:15.790Z,3.10
2018-02-25T15:59:43.020Z,2.67
2018-02-25T16:02:09.472Z,3.00
2018-02-25T16:04:36.635Z,3.40
2018-02-25T16:07:03.871Z,2.93
2018-02-25T16:09:31.055Z,2.70
2018-02-25T16:11:58.211Z,2.70
2018-02-25T16:14:24.628Z,3.10
2018-02-25T16:16:51.100Z,2.50
2018-02-25T16:19:17.538Z,3.00
2018-02-25T16:21:43.933Z,2.97
2018-02-25T16:24:11.155Z,3.73
2018-02-25T16:26:38.349Z,2.63
2018-02-25T16:29:04.838Z,3.07
2018-02-25T16:31:32.063Z,2.83
2018-02-25T16:33:58.628Z,3.40
2018-02-25T16:36:25.845Z,2.90
2018-02-25T16:38:52.280Z,3.27
2018-02-25T16:41:18.758Z,2.70
2018-02-25T16:43:46.089Z,2.90
2018-02-25T16:46:13.318Z,3.33
2018-02-25T16:48:39.798Z,3.00
2018-02-25T16:51:06.186Z,2.47
2018-02-25T16:53:32.757Z,2.63
2018-02-25T16:55:59.171Z,3.03
2018-02-25T16:58:25.639Z,2.80
2018-02-25T17:00:52.820Z,2.60
2018-02-25T17:03:19.231Z,2.77
2018-02-25T17:05:45.662Z,3.27
2018-02-25T17:08:12.252Z,2.37
2018-02-25T17:10:38.680Z,2.37
2018-02-25T17:13:05.102Z,3.00
2018-02-25T17:15:31.532Z,2.93
2018-02-25T17:17:58.113Z,2.40
2018-02-25T17:20:31.586Z,2.37
2018-02-25T17:22:58.096Z,2.67
2018-02-25T17:25:24.578Z,2.57
2018-02-25T17:27:51.829Z,3.07
2018-02-25T17:30:19.018Z,2.50
2018-02-25T17:32:46.154Z,3.10
2018-02-25T17:35:12.629Z,2.60
2018-02-25T17:37:39.135Z,3.10
2018-02-25T17:40:05.583Z,2.30
2018-02-25T17:42:32.276Z,3.50
2018-02-25T17:44:59.634Z,2.40
2018-02-25T17:47:26.856Z,2.73
2018-02-25T17:49:53.318Z,2.90
2018-02-25T17:52:19.728Z,2.27
2018-02-25T17:54:46.152Z,2.70
2018-02-25T17:57:12.714Z,3.10
2018-02-25T17:59:39.890Z,2.00
2018-02-25T18:02:06.370Z,2.90
2018-02-25T18:04:32.855Z,3.07
2018-02-25T18:06:59.475Z,2.80
2018-02-25T18:09:26.023Z,2.20
2018-02-25T18:11:52.645Z,2.17
2018-02-25T18:14:19.099Z,2.90
2018-02-25T18:16:45.527Z,3.13
2018-02-25T18:19:12.701Z,2.97
2018-02-25T18:21:39.142Z,2.53
2018-02-25T18:24:05.731Z,2.40
2018-02-25T18:26:32.912Z,2.50
2018-02-25T18:28:59.347Z,2.20
2018-02-25T18:31:25.805Z,2.27
2018-02-25T18:33:52.240Z,2.93
2018-02-25T18:36:18.716Z,2.47
2018-02-25T18:38:45.160Z,3.00
2018-02-25T18:41:12.396Z,2.50
2018-02-25T18:43:38.834Z,2.30
2018-02-25T18:46:05.998Z,2.00
2018-02-25T18:48:32.432Z,2.60
2018-02-25T18:50:58.971Z,2.43
2018-02-25T18:53:26.182Z,2.80
2018-02-25T18:55:52.672Z,2.50
2018-02-25T18:58:19.867Z,2.47
2018-02-25T19:00:46.429Z,2.43
2018-02-25T19:03:12.885Z,2.57
2018-02-25T19:05:40.216Z,2.67
2018-02-25T19:08:07.445Z,2.40
2018-02-25T19:10:34.007Z,2.20
2018-02-25T19:13:00.411Z,2.73
2018-02-25T19:15:26.851Z,2.40
2018-02-25T19:17:53.302Z,1.97
2018-02-25T19:20:19.707Z,2.90
2018-02-25T19:22:46.193Z,2.20
2018-02-25T19:25:12.653Z,3.30
2018-02-25T19:27:39.087Z,2.40
2018-02-25T19:30:05.522Z,2.57
2018-02-25T19:32:32.014Z,2.97
2018-02-25T19:34:58.476Z,2.90
2018-02-25T19:37:30.885Z,2.83
2018-02-25T19:40:01.337Z,2.87
2018-02-25T19:42:27.803Z,3.47
2018-02-25T19:44:54.235Z,3.10
2018-02-25T19:47:20.846Z,2.93
2018-02-25T19:49:48.109Z,2.37
2018-02-25T19:52:14.519Z,3.40
2018-02-25T19:54:40.985Z,2.30
2018-02-25T19:57:08.217Z,2.90
2018-02-25T19:59:34.716Z,2.60
2018-02-25T20:02:08.074Z,2.37
2018-02-25T20:04:34.484Z,2.33
2018-02-25T20:07:01.728Z,2.40
2018-02-25T20:09:29.056Z,2.40
2018-02-25T20:11:55.604Z,2.70
2018-02-25T20:14:22.978Z,2.50
2018-02-25T20:16:50.198Z,2.40
2018-02-25T20:19:16.762Z,2.67
2018-02-25T20:21:44.012Z,2.40
2018-02-25T20:24:10.441Z,2.33
2018-02-25T20:26:36.899Z,2.30
2018-02-25T20:29:03.415Z,2.43
2018-02-25T20:31:29.917Z,2.60
2018-02-25T20:33:56.383Z,3.20
2018-02-25T20:36:23.570Z,2.63
2018-02-25T20:38:50.028Z,2.30
2018-02-25T20:41:16.462Z,2.50
2018-02-25T20:43:42.937Z,2.20
2018-02-25T20:46:10.195Z,2.63
2018-02-25T20:48:37.441Z,2.70
2018-02-25T20:51:03.977Z,2.47
2018-02-25T20:53:30.923Z,7.50
2018-02-25T20:55:58.587Z,2.80
2018-02-25T20:58:26.105Z,2.60
2018-02-25T21:00:52.559Z,2.90
2018-02-25T21:03:18.979Z,2.77
2018-02-25T21:05:45.529Z,3.00
2018-02-25T21:08:11.974Z,3.00
2018-02-25T21:10:39.885Z,2.87
2018-02-25T21:13:06.326Z,2.60
2018-02-25T21:15:32.744Z,2.53
2018-02-25T21:17:59.208Z,2.83
2018-02-25T21:20:25.758Z,2.50
2018-02-25T21:22:52.247Z,3.13
2018-02-25T21:25:18.829Z,3.13
2018-02-25T21:27:45.249Z,2.97
2018-02-25T21:30:11.707Z,2.77
2018-02-25T21:32:39.663Z,2.70
2018-02-25T21:35:06.077Z,3.03
2018-02-25T21:37:32.632Z,3.60
2018-02-25T21:39:59.228Z,2.57
2018-02-25T21:42:25.628Z,3.23
2018-02-25T21:44:52.161Z,2.73
2018-02-25T21:47:18.569Z,3.23
2018-02-25T21:49:44.975Z,3.27
2018-02-25T21:52:11.433Z,2.93
2018-02-25T21:54:43.851Z,3.23
2018-02-25T21:57:16.508Z,2.80
2018-02-25T21:59:49.683Z,3.27
2018-02-25T22:02:22.220Z,2.60
2018-02-25T22:04:48.724Z,2.63
2018-02-25T22:07:15.897Z,3.27
2018-02-25T22:09:42.603Z,2.70
2018-02-25T22:12:09.767Z,3.40
2018-02-25T22:14:36.914Z,2.80
2018-02-25T22:17:04.153Z,2.70
2018-02-25T22:19:30.664Z,2.90
2018-02-25T22:21:57.152Z,2.63
2018-02-25T22:24:23.634Z,3.17
2018-02-25T22:26:50.092Z,2.87
2018-02-25T22:29:16.627Z,3.40
2018-02-25T22:31:43.791Z,4.13
2018-02-25T22:34:10.973Z,3.60
2018-02-25T22:36:37.428Z,3.50
2018-02-25T22:39:03.999Z,3.43
2018-02-25T22:41:31.149Z,2.63
2018-02-25T22:43:57.660Z,3.20
2018-02-25T22:46:24.141Z,3.20
2018-02-25T22:48:51.299Z,3.20
2018-02-25T22:51:17.732Z,3.20
2018-02-25T22:53:44.296Z,3.30
2018-02-25T22:56:10.704Z,1.80
2018-02-25T22:58:37.116Z,2.80
2018-02-25T23:01:03.684Z,3.23
2018-02-25T23:03:30.069Z,3.03
2018-02-25T23:05:56.603Z,2.90
2018-02-25T23:08:23.017Z,2.90
2018-02-25T23:10:49.395Z,3.20
2018-02-25T23:13:16.592Z,3.43
2018-02-25T23:15:43.012Z,3.40
2018-02-25T23:18:10.341Z,2.40
2018-02-25T23:20:37.560Z,2.70
2018-02-25T23:23:04.008Z,2.40
2018-02-25T23:25:31.246Z,2.30
2018-02-25T23:27:58.443Z,2.33
2018-02-25T23:30:24.880Z,2.80
2018-02-25T23:32:51.406Z,3.57
2018-02-25T23:35:18.527Z,3.10
2018-02-25T23:37:45.867Z,3.10
2018-02-25T23:40:13.118Z,3.33
2018-02-25T23:42:39.528Z,2.83
2018-02-25T23:45:05.970Z,3.00
2018-02-25T23:47:32.418Z,2.80
2018-02-25T23:49:59.681Z,3.23
2018-02-25T23:52:26.862Z,2.50
2018-02-25T23:54:53.280Z,2.70
2018-02-25T23:57:20.439Z,3.53
2018-02-25T23:59:46.881Z,3.13
